Time;durP1;ratioP1;P1;durP2;ratioP2;P2;SDS_P1;SDS_P2;PMS_P1;PMS_P2;Temp;Humidity;BMP_temperature;BMP_pressure;BME280_temperature;BME280_humidity;BME280_pressure;Samples;Min_cycle;Max_cycle;Signal;HPM_P1;HPM_P2
2023/06/24 00:01:17;;;;;;;4.97;3.80;;;19.90;99.90;;;;;;5091442;28;20478;-57
2023/06/24 00:03:46;;;;;;;5.03;3.60;;;19.90;99.90;;;;;;5091057;28;20028;-57
2023/06/24 00:06:18;;;;;;;4.18;3.75;;;20.10;99.90;;;;;;5091087;28;20024;-57
2023/06/24 00:09:00;;;;;;;3.53;3.22;;;20.10;99.90;;;;;;5091354;28;20028;-57
2023/06/24 00:11:27;;;;;;;4.50;3.55;;;20.00;99.90;;;;;;5091247;28;20099;-56
2023/06/24 00:13:53;;;;;;;3.97;3.47;;;19.80;99.90;;;;;;5090472;28;20086;-56
2023/06/24 00:16:27;;;;;;;3.60;3.22;;;19.80;99.90;;;;;;5091023;28;20039;-57
2023/06/24 00:19:00;;;;;;;3.80;3.50;;;19.80;99.90;;;;;;5090622;28;20111;-57
2023/06/24 00:21:29;;;;;;;5.15;3.40;;;19.80;99.90;;;;;;5090768;28;20044;-57
2023/06/24 00:24:04;;;;;;;3.80;3.50;;;19.70;99.90;;;;;;5090891;28;20115;-57
2023/06/24 00:26:30;;;;;;;4.70;3.75;;;19.70;99.90;;;;;;5090812;28;20451;-57
2023/06/24 00:28:55;;;;;;;3.80;3.50;;;19.70;99.90;;;;;;5090883;28;20493;-57
2023/06/24 00:31:21;;;;;;;4.05;3.70;;;19.70;99.90;;;;;;5090964;28;20024;-57
2023/06/24 00:33:49;;;;;;;4.22;3.78;;;19.80;99.90;;;;;;5090712;28;20020;-57
2023/06/24 00:36:15;;;;;;;4.90;3.55;;;19.70;99.90;;;;;;5090627;28;20502;-57
2023/06/24 00:38:40;;;;;;;4.45;3.72;;;19.50;99.90;;;;;;5091000;28;20028;-57
2023/06/24 00:41:07;;;;;;;4.15;3.85;;;19.40;99.90;;;;;;5093443;28;20028;-57
2023/06/24 00:43:33;;;;;;;4.22;3.83;;;19.40;99.90;;;;;;5094440;28;20393;-57
2023/06/24 00:45:59;;;;;;;4.03;3.63;;;19.30;99.90;;;;;;5094606;28;20027;-57
2023/06/24 00:48:25;;;;;;;4.28;3.90;;;19.30;99.90;;;;;;5094867;28;20028;-56
2023/06/24 00:50:51;;;;;;;4.10;3.70;;;19.20;99.90;;;;;;5094407;28;20028;-57
2023/06/24 00:53:18;;;;;;;4.43;3.92;;;19.10;99.90;;;;;;5094199;28;20028;-57
2023/06/24 00:55:45;;;;;;;6.03;4.13;;;19.10;99.90;;;;;;5093837;28;20123;-57
2023/06/24 00:58:16;;;;;;;4.07;3.53;;;19.10;99.90;;;;;;5094617;28;20536;-57
2023/06/24 01:00:45;;;;;;;4.05;3.75;;;19.00;99.90;;;;;;5094075;28;20043;-57
2023/06/24 01:03:16;;;;;;;7.20;3.83;;;19.00;99.90;;;;;;5094192;28;20405;-57
2023/06/24 01:05:42;;;;;;;5.57;3.83;;;18.90;99.90;;;;;;5094092;28;20032;-57
2023/06/24 01:08:09;;;;;;;4.53;4.10;;;18.80;99.90;;;;;;5093935;28;20041;-56
2023/06/24 01:10:35;;;;;;;6.00;4.20;;;18.80;99.90;;;;;;5093666;28;20028;-56
2023/06/24 01:13:00;;;;;;;4.22;3.67;;;18.90;99.90;;;;;;5093994;28;20401;-57
2023/06/24 01:15:28;;;;;;;4.25;3.85;;;19.00;99.90;;;;;;5094151;28;20055;-57
2023/06/24 01:18:15;;;;;;;3.97;3.58;;;19.00;99.90;;;;;;5093261;28;20118;-57
2023/06/24 01:21:05;;;;;;;4.97;3.80;;;19.10;99.90;;;;;;5093905;28;20430;-57
2023/06/24 01:23:49;;;;;;;5.05;3.92;;;19.30;99.90;;;;;;5093770;28;20051;-57
2023/06/24 01:26:33;;;;;;;4.22;3.85;;;19.30;99.90;;;;;;5093250;28;20050;-57
2023/06/24 01:29:10;;;;;;;5.43;4.10;;;19.30;99.90;;;;;;5093715;28;20074;-58
2023/06/24 01:32:04;;;;;;;4.18;3.75;;;19.30;99.90;;;;;;5093742;28;20028;-62
2023/06/24 01:34:48;;;;;;;5.63;4.10;;;19.30;99.90;;;;;;5093324;28;20077;-56
2023/06/24 01:37:31;;;;;;;5.00;3.60;;;19.30;99.90;;;;;;5093432;28;20031;-57
2023/06/24 01:40:08;;;;;;;;;;;19.30;99.90;;;;;;5092152;28;20029;-56
2023/06/24 01:42:39;;;;;;;4.05;3.65;;;19.30;99.90;;;;;;5093651;28;19911;-57
2023/06/24 01:45:13;;;;;;;3.50;3.20;;;19.20;99.90;;;;;;5093401;28;20103;-57
2023/06/24 01:47:42;;;;;;;5.70;3.70;;;19.10;99.90;;;;;;5093357;28;20028;-56
2023/06/24 01:50:11;;;;;;;3.90;3.60;;;18.90;99.90;;;;;;5093313;28;20028;-56
2023/06/24 01:52:39;;;;;;;4.10;3.80;;;18.80;99.90;;;;;;5092159;28;20031;-57
2023/06/24 01:55:08;;;;;;;3.97;3.58;;;18.60;99.90;;;;;;5092887;28;20046;-55
2023/06/24 01:57:36;;;;;;;4.10;3.70;;;18.60;99.90;;;;;;5093483;28;20546;-56
2023/06/24 02:00:06;;;;;;;4.25;3.85;;;18.50;99.90;;;;;;5093048;28;20028;-57
2023/06/24 02:02:32;;;;;;;4.25;3.75;;;18.40;99.90;;;;;;5093015;28;20444;-57
2023/06/24 02:05:01;;;;;;;4.78;3.50;;;18.40;99.90;;;;;;5093123;28;20049;-56
2023/06/24 02:07:29;;;;;;;5.05;3.90;;;18.40;99.90;;;;;;5093322;28;20525;-57
2023/06/24 02:09:56;;;;;;;4.93;3.80;;;18.30;99.90;;;;;;5092444;28;20024;-57
2023/06/24 02:12:24;;;;;;;4.22;3.83;;;18.20;99.90;;;;;;5092963;28;20024;-57
2023/06/24 02:14:52;;;;;;;4.00;3.70;;;18.20;99.90;;;;;;5092650;28;20114;-57
2023/06/24 02:17:19;;;;;;;4.93;3.80;;;18.20;99.90;;;;;;5092703;28;20012;-57
2023/06/24 02:19:46;;;;;;;4.07;3.70;;;18.10;99.90;;;;;;5092396;28;20035;-57
2023/06/24 02:22:13;;;;;;;3.95;3.60;;;18.10;99.90;;;;;;5092513;28;20044;-57
2023/06/24 02:24:40;;;;;;;4.15;3.70;;;18.00;99.90;;;;;;5092783;28;20102;-56
2023/06/24 02:27:08;;;;;;;4.30;3.90;;;18.00;99.90;;;;;;5092772;28;20047;-56
2023/06/24 02:29:37;;;;;;;4.65;4.10;;;18.00;99.90;;;;;;5092456;28;20027;-56
2023/06/24 02:32:03;;;;;;;4.20;3.80;;;18.10;99.90;;;;;;5092864;28;20084;-55
2023/06/24 02:34:29;;;;;;;4.00;3.60;;;18.10;99.90;;;;;;5092205;28;20076;-57
2023/06/24 02:36:54;;;;;;;5.80;4.00;;;18.20;99.90;;;;;;5092110;28;20020;-57
2023/06/24 02:39:20;;;;;;;5.03;3.85;;;18.20;99.90;;;;;;5092206;28;20092;-57
2023/06/24 02:41:47;;;;;;;4.45;3.90;;;18.30;99.90;;;;;;5092275;28;20036;-57
2023/06/24 02:44:13;;;;;;;7.68;3.75;;;18.30;99.90;;;;;;5092299;28;20016;-57
2023/06/24 02:46:40;;;;;;;4.45;4.03;;;18.30;99.90;;;;;;5092211;28;20045;-57
2023/06/24 02:49:08;;;;;;;4.53;4.03;;;18.30;99.90;;;;;;5092114;28;20016;-57
2023/06/24 02:51:34;;;;;;;4.10;3.70;;;18.30;99.90;;;;;;5091716;28;20032;-56
2023/06/24 02:54:01;;;;;;;4.95;3.72;;;18.20;99.90;;;;;;5091886;28;20016;-57
2023/06/24 02:56:27;;;;;;;4.00;3.70;;;18.20;99.90;;;;;;5092298;28;20097;-58
2023/06/24 02:58:54;;;;;;;4.30;3.90;;;18.10;99.90;;;;;;5091950;28;20030;-57
2023/06/24 03:01:24;;;;;;;4.25;3.85;;;18.10;99.90;;;;;;5091906;28;20066;-57
2023/06/24 03:03:53;;;;;;;5.22;4.30;;;17.90;99.90;;;;;;5092091;28;20071;-57
2023/06/24 03:06:19;;;;;;;4.07;3.70;;;17.80;99.90;;;;;;5091485;28;20474;-57
2023/06/24 03:08:45;;;;;;;4.25;3.85;;;17.80;99.90;;;;;;5091910;28;20024;-57
2023/06/24 03:11:15;;;;;;;5.22;4.00;;;17.60;99.90;;;;;;5091672;28;20034;-60
2023/06/24 03:13:41;;;;;;;4.55;4.00;;;17.60;99.90;;;;;;5092166;28;20108;-57
2023/06/24 03:16:12;;;;;;;4.68;4.13;;;17.60;99.90;;;;;;5091588;28;20119;-57
2023/06/24 03:18:41;;;;;;;5.03;4.45;;;17.50;99.90;;;;;;5091331;28;20031;-56
2023/06/24 03:21:08;;;;;;;6.45;4.78;;;17.50;99.90;;;;;;5091527;28;20036;-56
2023/06/24 03:23:33;;;;;;;4.57;4.18;;;17.50;99.90;;;;;;5091528;28;20111;-56
2023/06/24 03:25:59;;;;;;;5.13;3.90;;;17.50;99.90;;;;;;5091403;28;20095;-57
2023/06/24 03:28:25;;;;;;;4.43;4.03;;;17.40;99.90;;;;;;5091499;28;20039;-57
2023/06/24 03:30:50;;;;;;;4.78;4.28;;;17.40;99.90;;;;;;5091467;28;20027;-57
2023/06/24 03:33:16;;;;;;;5.32;4.35;;;17.30;99.90;;;;;;5091285;28;20039;-57
2023/06/24 03:35:45;;;;;;;4.28;3.97;;;17.30;99.90;;;;;;5091019;28;20047;-57
2023/06/24 03:38:11;;;;;;;4.40;3.97;;;17.30;99.90;;;;;;5091309;28;20016;-57
2023/06/24 03:40:37;;;;;;;5.75;4.30;;;17.20;99.90;;;;;;5091783;28;20035;-56
2023/06/24 03:43:03;;;;;;;4.80;4.35;;;17.20;99.90;;;;;;5091270;28;20072;-56
2023/06/24 03:45:29;;;;;;;4.65;4.25;;;17.30;99.90;;;;;;5091248;28;20422;-56
2023/06/24 03:47:54;;;;;;;4.88;3.92;;;17.40;99.90;;;;;;5091157;28;20395;-56
2023/06/24 03:50:20;;;;;;;5.28;4.30;;;17.40;99.90;;;;;;5090887;28;20093;-56
2023/06/24 03:52:46;;;;;;;5.40;4.30;;;17.50;99.90;;;;;;5091154;28;20053;-56
2023/06/24 03:55:11;;;;;;;4.35;3.92;;;17.50;99.90;;;;;;5091004;28;20062;-56
2023/06/24 03:57:37;;;;;;;5.00;3.90;;;17.60;99.90;;;;;;5091634;28;20031;-55
2023/06/24 04:00:16;;;;;;;4.70;4.07;;;17.50;99.90;;;;;;5091157;28;20108;-57
2023/06/24 04:02:42;;;;;;;7.25;4.70;;;17.50;99.90;;;;;;5091070;28;20024;-57
2023/06/24 04:05:09;;;;;;;4.88;4.40;;;17.50;99.90;;;;;;5090748;28;20020;-56
2023/06/24 04:07:35;;;;;;;5.18;4.70;;;17.50;99.90;;;;;;5091062;28;20034;-57
2023/06/24 04:10:03;;;;;;;5.93;5.00;;;17.50;99.90;;;;;;5091319;28;20049;-56
2023/06/24 04:12:29;;;;;;;5.88;4.43;;;17.50;99.90;;;;;;5091091;28;20046;-57
2023/06/24 04:14:55;;;;;;;4.95;4.40;;;17.30;99.90;;;;;;5091961;28;20085;-57
2023/06/24 04:17:21;;;;;;;6.78;4.40;;;17.30;99.90;;;;;;5094769;28;20030;-57
2023/06/24 04:19:46;;;;;;;5.03;4.53;;;17.20;99.90;;;;;;5094796;28;20028;-57
2023/06/24 04:22:12;;;;;;;5.93;4.70;;;17.10;99.90;;;;;;5094866;28;20051;-57
2023/06/24 04:24:38;;;;;;;6.32;4.35;;;17.10;99.90;;;;;;5095211;28;20069;-57
2023/06/24 04:27:05;;;;;;;4.97;4.53;;;17.10;99.90;;;;;;5094905;28;20114;-57
2023/06/24 04:29:31;;;;;;;4.90;4.47;;;17.10;99.90;;;;;;5094759;28;20081;-57
2023/06/24 04:31:57;;;;;;;5.75;5.10;;;17.00;99.90;;;;;;5094635;28;20040;-57
2023/06/24 04:34:22;;;;;;;5.10;4.47;;;17.00;99.90;;;;;;5094336;28;20021;-57
2023/06/24 04:36:48;;;;;;;5.13;4.70;;;17.00;99.90;;;;;;5095106;28;20036;-57
2023/06/24 04:39:14;;;;;;;4.88;4.40;;;17.00;99.90;;;;;;5093299;28;20557;-57
2023/06/24 04:41:39;;;;;;;4.97;4.57;;;16.90;99.90;;;;;;5094731;28;20554;-56
2023/06/24 04:44:05;;;;;;;5.38;4.88;;;16.90;99.90;;;;;;5094495;28;20052;-58
2023/06/24 04:46:32;;;;;;;5.30;4.80;;;16.90;99.90;;;;;;5094291;28;20394;-57
2023/06/24 04:48:58;;;;;;;6.75;5.22;;;16.90;99.90;;;;;;5094301;28;20027;-56
2023/06/24 04:51:24;;;;;;;7.82;4.70;;;17.00;99.90;;;;;;5094650;28;20028;-57
2023/06/24 04:53:49;;;;;;;5.05;4.65;;;16.90;99.90;;;;;;5094503;28;20021;-56
2023/06/24 04:56:15;;;;;;;5.32;4.72;;;17.00;99.90;;;;;;5094204;28;20051;-57
2023/06/24 04:58:40;;;;;;;4.85;4.38;;;17.00;99.90;;;;;;5094237;28;20020;-56
2023/06/24 05:01:06;;;;;;;5.00;4.50;;;17.30;99.90;;;;;;5094264;28;20042;-56
2023/06/24 05:03:32;;;;;;;6.28;4.70;;;17.40;99.90;;;;;;5094225;28;20103;-56
2023/06/24 05:05:57;;;;;;;4.60;4.22;;;17.50;99.90;;;;;;5094044;28;20028;-56
2023/06/24 05:08:23;;;;;;;5.00;4.45;;;17.50;99.90;;;;;;5094317;28;20419;-56
2023/06/24 05:10:49;;;;;;;5.63;4.82;;;17.50;99.90;;;;;;5094004;28;20107;-56
2023/06/24 05:13:14;;;;;;;6.95;4.68;;;17.70;99.90;;;;;;5094375;28;20290;-56
2023/06/24 05:15:40;;;;;;;6.22;4.55;;;17.80;99.90;;;;;;5093533;28;20043;-56
2023/06/24 05:18:06;;;;;;;8.05;4.45;;;17.80;99.90;;;;;;5093538;28;20054;-56
2023/06/24 05:20:31;;;;;;;5.38;4.75;;;17.80;99.90;;;;;;5093940;28;20042;-57
2023/06/24 05:22:57;;;;;;;5.38;4.40;;;17.90;99.90;;;;;;5093980;28;20047;-56
2023/06/24 05:25:23;;;;;;;5.10;4.60;;;17.90;99.90;;;;;;5093783;28;20028;-56
2023/06/24 05:27:49;;;;;;;6.15;4.60;;;17.80;99.90;;;;;;5092385;28;20047;-57
2023/06/24 05:30:15;;;;;;;5.72;4.88;;;17.80;99.90;;;;;;5093656;28;20028;-56
2023/06/24 05:32:40;;;;;;;5.22;4.25;;;17.70;99.90;;;;;;5093210;28;20047;-57
2023/06/24 05:35:07;;;;;;;5.32;4.50;;;17.70;99.90;;;;;;5093582;28;20043;-57
2023/06/24 05:37:32;;;;;;;4.60;4.20;;;17.70;99.90;;;;;;5093477;28;20076;-57
2023/06/24 05:40:01;;;;;;;5.20;4.70;;;17.80;99.90;;;;;;5093494;28;20031;-57
2023/06/24 05:42:27;;;;;;;4.65;4.30;;;17.80;99.90;;;;;;5093458;28;20039;-57
2023/06/24 05:44:53;;;;;;;4.50;4.10;;;17.90;99.90;;;;;;5093228;28;20024;-57
2023/06/24 05:47:18;;;;;;;5.57;4.00;;;18.00;99.90;;;;;;5092971;28;20104;-57
2023/06/24 05:49:44;;;;;;;4.95;4.22;;;18.00;99.90;;;;;;5093259;28;20093;-57
2023/06/24 05:52:11;;;;;;;5.82;4.22;;;18.00;99.90;;;;;;5093126;28;20498;-57
2023/06/24 05:54:37;;;;;;;4.47;4.07;;;18.10;99.90;;;;;;5093139;28;20082;-57
2023/06/24 05:57:05;;;;;;;5.63;4.32;;;18.10;99.90;;;;;;5093513;28;20059;-57
2023/06/24 05:59:32;;;;;;;4.80;4.28;;;18.10;99.90;;;;;;5093055;28;20099;-57
2023/06/24 06:01:57;;;;;;;4.68;4.18;;;18.20;99.90;;;;;;5092618;28;20024;-56
2023/06/24 06:04:23;;;;;;;5.43;4.93;;;18.20;99.90;;;;;;5093288;28;20397;-57
2023/06/24 06:06:49;;;;;;;5.80;5.22;;;18.30;99.90;;;;;;5092884;28;20017;-57
2023/06/24 06:09:14;;;;;;;6.57;5.80;;;18.40;99.90;;;;;;5092902;28;20038;-56
2023/06/24 06:11:40;;;;;;;6.70;5.72;;;18.50;99.90;;;;;;5092941;28;20031;-56
2023/06/24 06:14:06;;;;;;;7.00;6.32;;;18.80;99.90;;;;;;5092983;28;20020;-57
2023/06/24 06:16:31;;;;;;;8.50;6.32;;;19.10;99.90;;;;;;5092278;28;20413;-56
2023/06/24 06:18:57;;;;;;;7.10;5.72;;;19.30;99.90;;;;;;5092708;28;20036;-57
2023/06/24 06:21:24;;;;;;;6.60;5.45;;;19.50;99.90;;;;;;5092476;28;20393;-56
2023/06/24 06:23:50;;;;;;;5.30;4.80;;;19.60;99.90;;;;;;5092967;28;20026;-56
2023/06/24 06:26:16;;;;;;;4.90;4.32;;;19.60;99.90;;;;;;5092522;28;20574;-54
2023/06/24 06:28:41;;;;;;;4.90;4.40;;;19.70;99.90;;;;;;5092609;28;20502;-60
2023/06/24 06:31:07;;;;;;;5.63;4.47;;;19.80;99.90;;;;;;5092355;28;20035;-57
2023/06/24 06:33:33;;;;;;;4.53;4.10;;;19.90;99.90;;;;;;5093188;28;20032;-56
2023/06/24 06:35:59;;;;;;;4.30;3.90;;;20.10;99.90;;;;;;5092321;28;20043;-57
2023/06/24 06:38:25;;;;;;;5.10;4.30;;;20.10;99.90;;;;;;5091961;28;20028;-57
2023/06/24 06:40:50;;;;;;;4.82;4.00;;;20.10;99.90;;;;;;5092241;28;20166;-57
2023/06/24 06:43:16;;;;;;;4.47;4.07;;;20.10;99.90;;;;;;5091876;28;20391;-55
2023/06/24 06:45:42;;;;;;;6.03;4.35;;;20.00;99.90;;;;;;5092632;28;20103;-57
2023/06/24 06:48:08;;;;;;;4.80;4.20;;;20.00;99.90;;;;;;5092194;28;20032;-56
2023/06/24 06:50:34;;;;;;;5.45;4.47;;;20.00;99.90;;;;;;5092090;28;20037;-57
2023/06/24 06:53:00;;;;;;;5.03;4.50;;;20.00;99.90;;;;;;5092264;28;20497;-57
2023/06/24 06:55:27;;;;;;;4.65;4.25;;;20.00;99.90;;;;;;5091817;28;20042;-57
2023/06/24 06:57:53;;;;;;;5.15;4.20;;;20.00;99.90;;;;;;5091659;28;20444;-57
2023/06/24 07:00:19;;;;;;;6.75;4.40;;;20.10;99.90;;;;;;5092214;28;20024;-56
2023/06/24 07:02:44;;;;;;;6.82;5.03;;;20.10;99.90;;;;;;5091956;28;20081;-57
2023/06/24 07:05:11;;;;;;;7.00;5.18;;;20.20;99.90;;;;;;5091820;28;20069;-56
2023/06/24 07:07:40;;;;;;;6.53;4.70;;;20.30;99.90;;;;;;5091820;28;20111;-57
2023/06/24 07:10:06;;;;;;;5.82;4.82;;;20.40;99.90;;;;;;5091680;28;20441;-58
2023/06/24 07:12:32;;;;;;;6.68;5.22;;;20.50;99.90;;;;;;5091930;28;20040;-57
2023/06/24 07:14:57;;;;;;;8.98;5.60;;;20.60;99.90;;;;;;5091616;28;20044;-57
2023/06/24 07:17:23;;;;;;;8.07;5.75;;;20.70;99.90;;;;;;5091431;28;20012;-57
2023/06/24 07:19:49;;;;;;;7.88;6.30;;;20.70;99.90;;;;;;5090494;28;20028;-59
2023/06/24 07:22:15;;;;;;;8.48;6.38;;;20.80;99.90;;;;;;5091677;28;20123;-57
2023/06/24 07:24:41;;;;;;;8.25;6.50;;;21.00;99.90;;;;;;5091752;28;20040;-57
2023/06/24 07:27:08;;;;;;;8.35;6.70;;;21.20;99.90;;;;;;5091048;28;20052;-57
2023/06/24 07:29:34;;;;;;;8.45;6.78;;;21.50;99.90;;;;;;5091455;28;20028;-57
2023/06/24 07:32:00;;;;;;;8.05;6.65;;;21.90;99.90;;;;;;5091780;28;20052;-57
2023/06/24 07:34:25;;;;;;;9.77;7.20;;;22.10;99.90;;;;;;5091165;28;20027;-57
2023/06/24 07:36:51;;;;;;;10.40;6.70;;;22.30;99.90;;;;;;5091639;28;20060;-55
2023/06/24 07:39:17;;;;;;;10.07;7.15;;;22.50;99.90;;;;;;5091482;28;20028;-57
2023/06/24 07:41:43;;;;;;;7.93;6.47;;;22.60;99.90;;;;;;5091100;28;20481;-57
2023/06/24 07:44:09;;;;;;;9.95;7.05;;;22.70;99.90;;;;;;5091151;28;20094;-57
2023/06/24 07:46:35;;;;;;;7.53;6.70;;;22.70;99.90;;;;;;5091325;28;20072;-57
2023/06/24 07:49:00;;;;;;;9.70;7.55;;;22.90;99.90;;;;;;5091052;28;20027;-57
2023/06/24 07:51:27;;;;;;;10.00;7.20;;;23.00;99.90;;;;;;5090901;28;20036;-58
2023/06/24 07:53:52;;;;;;;9.63;6.82;;;23.00;99.90;;;;;;5090959;28;20020;-58
2023/06/24 07:56:18;;;;;;;10.57;7.45;;;22.90;99.90;;;;;;5090786;28;20047;-58
2023/06/24 07:58:44;;;;;;;8.90;7.40;;;22.70;99.90;;;;;;5091459;28;20025;-58
2023/06/24 08:01:09;;;;;;;9.70;7.25;;;22.70;99.90;;;;;;5091084;28;20525;-58
2023/06/24 08:03:38;;;;;;;9.70;7.53;;;22.70;99.90;;;;;;5091278;28;20046;-57
2023/06/24 08:06:04;;;;;;;8.30;6.88;;;22.70;99.90;;;;;;5090999;28;20020;-58
2023/06/24 08:08:29;;;;;;;10.93;6.85;;;22.80;99.90;;;;;;5091355;28;20406;-58
2023/06/24 08:10:55;;;;;;;10.65;7.63;;;23.00;99.90;;;;;;5089543;28;20467;-57
2023/06/24 08:13:21;;;;;;;13.52;7.50;;;23.00;99.90;;;;;;5091180;28;20489;-58
2023/06/24 08:15:46;;;;;;;10.55;7.47;;;23.10;99.90;;;;;;5091166;28;20048;-58
2023/06/24 08:18:12;;;;;;;8.68;7.00;;;23.20;99.90;;;;;;5090756;28;20505;-57
2023/06/24 08:20:38;;;;;;;9.35;6.97;;;23.20;99.90;;;;;;5090895;28;20099;-57
2023/06/24 08:23:03;;;;;;;8.77;6.63;;;23.30;99.90;;;;;;5090840;28;20530;-58
2023/06/24 08:25:30;;;;;;;8.60;6.43;;;23.40;99.90;;;;;;5091095;28;20113;-57
2023/06/24 08:27:56;;;;;;;5.80;5.20;;;23.50;99.90;;;;;;5090711;28;20035;-58
2023/06/24 08:30:21;;;;;;;6.40;4.60;;;23.60;99.90;;;;;;5090921;28;20043;-57
2023/06/24 08:32:47;;;;;;;4.60;4.20;;;23.70;99.90;;;;;;5091239;28;20446;-58
2023/06/24 08:35:13;;;;;;;7.18;5.28;;;23.90;99.90;;;;;;5090657;28;20115;-57
2023/06/24 08:37:39;;;;;;;5.38;4.55;;;24.00;99.90;;;;;;5090730;28;20485;-57
2023/06/24 08:40:05;;;;;;;4.35;3.95;;;24.00;99.90;;;;;;5090329;28;20039;-58
2023/06/24 08:42:31;;;;;;;6.47;4.32;;;24.20;99.90;;;;;;5091168;28;20394;-57
2023/06/24 08:44:57;;;;;;;4.38;3.97;;;24.40;99.90;;;;;;5090739;28;20024;-57
2023/06/24 08:47:29;;;;;;;5.50;4.15;;;24.60;99.90;;;;;;5090635;28;20039;-55
2023/06/24 08:50:08;;;;;;;4.25;3.70;;;24.80;99.90;;;;;;5090998;28;20020;-57
2023/06/24 08:52:36;;;;;;;4.00;3.65;;;24.90;99.90;;;;;;5090958;28;20394;-58
2023/06/24 08:55:03;;;;;;;5.55;3.55;;;24.90;99.90;;;;;;5090216;28;20044;-57
2023/06/24 08:57:29;;;;;;;4.00;3.60;;;24.90;99.90;;;;;;5090514;28;20039;-57
2023/06/24 08:59:54;;;;;;;3.70;3.40;;;24.90;99.90;;;;;;5090561;28;20437;-57
2023/06/24 09:02:20;;;;;;;4.82;3.80;;;25.10;99.90;;;;;;5094103;28;20106;-57
2023/06/24 09:04:46;;;;;;;3.95;3.60;;;25.20;99.90;;;;;;5093972;28;20116;-58
2023/06/24 09:07:12;;;;;;;4.70;3.63;;;25.40;99.90;;;;;;5092806;28;20490;-58
2023/06/24 09:09:44;;;;;;;3.58;3.28;;;25.40;99.90;;;;;;5094259;28;20028;-57
2023/06/24 09:12:13;;;;;;;4.78;3.53;;;25.40;99.90;;;;;;5094179;28;20453;-58
2023/06/24 09:14:40;;;;;;;4.55;3.45;;;25.40;99.90;;;;;;5093832;28;20020;-57
2023/06/24 09:17:06;;;;;;;4.45;3.90;;;25.40;99.90;;;;;;5093699;28;20556;-58
2023/06/24 09:19:39;;;;;;;4.70;3.50;;;25.40;99.90;;;;;;5093851;28;20024;-59
2023/06/24 09:22:07;;;;;;;5.65;4.07;;;25.40;99.90;;;;;;5093946;28;20132;-59
2023/06/24 09:24:34;;;;;;;3.85;3.45;;;25.50;99.90;;;;;;5093533;28;20094;-59
2023/06/24 09:27:00;;;;;;;5.13;3.70;;;25.50;99.90;;;;;;5093647;28;20070;-56
2023/06/24 09:29:27;;;;;;;4.30;3.83;;;25.60;99.90;;;;;;5093666;28;20036;-57
2023/06/24 09:31:53;;;;;;;7.80;3.40;;;25.50;99.90;;;;;;5093868;28;20046;-56
2023/06/24 09:34:19;;;;;;;4.88;3.22;;;25.70;99.90;;;;;;5093435;28;20050;-56
2023/06/24 09:36:50;;;;;;;5.40;3.67;;;25.80;99.90;;;;;;5093537;28;20034;-56
2023/06/24 09:39:16;;;;;;;4.22;3.83;;;25.70;99.90;;;;;;5093632;28;20024;-56
2023/06/24 09:41:42;;;;;;;6.18;3.75;;;25.70;99.90;;;;;;5093574;28;20039;-56
2023/06/24 09:44:10;;;;;;;4.10;3.70;;;25.90;99.90;;;;;;5093264;28;20020;-56
2023/06/24 09:46:37;;;;;;;3.85;3.20;;;25.90;99.90;;;;;;5092395;28;20496;-57
2023/06/24 09:49:04;;;;;;;5.05;3.38;;;26.10;99.90;;;;;;5093506;28;20331;-56
2023/06/24 09:51:38;;;;;;;6.13;3.65;;;26.20;99.90;;;;;;5093079;28;20024;-56
2023/06/24 09:54:06;;;;;;;3.95;3.58;;;26.30;99.90;;;;;;5093297;28;20061;-56
2023/06/24 09:56:46;;;;;;;4.63;3.55;;;26.30;99.90;;;;;;5092737;28;20551;-56
2023/06/24 09:59:13;;;;;;;5.82;3.50;;;26.60;99.90;;;;;;5093344;28;20073;-56
2023/06/24 10:01:41;;;;;;;4.45;3.25;;;26.90;99.90;;;;;;5093390;28;20020;-55
2023/06/24 10:04:07;;;;;;;4.07;3.67;;;26.90;99.90;;;;;;5092894;28;20036;-56
2023/06/24 10:06:33;;;;;;;3.63;3.33;;;26.80;99.90;;;;;;5092795;28;20020;-56
2023/06/24 10:09:00;;;;;;;5.65;3.25;;;26.90;99.90;;;;;;5093028;28;20398;-58
2023/06/24 10:11:25;;;;;;;4.50;3.60;;;27.20;99.90;;;;;;5093334;28;20028;-56
2023/06/24 10:13:52;;;;;;;4.35;3.25;;;27.00;99.90;;;;;;5092010;28;20540;-56
2023/06/24 10:16:18;;;;;;;4.45;3.50;;;27.00;99.90;;;;;;5092753;28;20040;-55
2023/06/24 10:18:45;;;;;;;3.58;3.22;;;27.20;99.90;;;;;;5092856;28;20020;-56
2023/06/24 10:21:11;;;;;;;4.70;3.75;;;27.20;99.90;;;;;;5092193;28;20085;-55
2023/06/24 10:23:43;;;;;;;3.78;3.40;;;27.40;99.90;;;;;;5093068;28;20032;-56
2023/06/24 10:26:10;;;;;;;4.55;3.30;;;27.70;99.90;;;;;;5092493;28;20036;-56
2023/06/24 10:29:05;;;;;;;4.13;3.47;;;27.80;99.90;;;;;;5092961;28;20024;-56
2023/06/24 10:31:40;;;;;;;4.60;3.47;;;27.80;99.90;;;;;;5092433;28;20107;-56
2023/06/24 10:34:35;;;;;;;3.83;3.20;;;27.30;99.90;;;;;;5092218;28;20448;-56
2023/06/24 10:37:02;;;;;;;4.63;3.33;;;27.40;99.90;;;;;;5086616;28;20075;-56
2023/06/24 10:39:48;;;;;;;3.55;3.25;;;27.50;99.90;;;;;;5092150;28;20038;-57
2023/06/24 10:42:26;;;;;;;3.78;3.40;;;27.50;99.90;;;;;;5092430;28;20032;-56
2023/06/24 10:44:56;;;;;;;10.60;8.85;;;27.50;99.90;;;;;;5092619;28;20039;-56
2023/06/24 10:47:23;;;;;;;8.73;7.82;;;27.60;99.90;;;;;;5092099;28;20401;-56
2023/06/24 10:49:49;;;;;;;6.10;4.68;;;27.60;99.90;;;;;;5091941;28;20032;-56
2023/06/24 10:52:17;;;;;;;5.03;3.63;;;27.60;99.90;;;;;;5092089;28;20027;-56
2023/06/24 10:54:43;;;;;;;4.00;3.60;;;27.60;99.90;;;;;;5092337;28;20035;-56
2023/06/24 10:57:12;;;;;;;4.53;3.35;;;27.60;99.90;;;;;;5092012;28;20032;-56
2023/06/24 10:59:41;;;;;;;3.63;3.33;;;27.70;99.90;;;;;;5092036;28;20107;-56
2023/06/24 11:02:14;;;;;;;5.15;3.30;;;27.70;99.90;;;;;;5091829;28;20040;-57
2023/06/24 11:04:47;;;;;;;4.20;3.47;;;27.70;99.90;;;;;;5091569;28;20101;-56
2023/06/24 11:07:14;;;;;;;3.55;3.25;;;27.90;99.90;;;;;;5091822;28;20024;-57
2023/06/24 11:09:52;;;;;;;3.60;3.30;;;28.10;99.90;;;;;;5092073;28;20039;-56
2023/06/24 11:12:18;;;;;;;4.78;3.28;;;28.20;99.90;;;;;;5091757;28;20020;-55
2023/06/24 11:14:44;;;;;;;5.00;3.30;;;28.20;99.90;;;;;;5091964;28;20035;-56
2023/06/24 11:17:10;;;;;;;4.05;3.35;;;28.40;99.90;;;;;;5091289;28;20402;-56
2023/06/24 11:19:39;;;;;;;3.67;3.30;;;28.60;99.90;;;;;;5091389;28;20093;-56
2023/06/24 11:22:06;;;;;;;3.90;3.05;;;28.80;99.90;;;;;;5091438;28;20518;-56
2023/06/24 11:24:32;;;;;;;4.57;3.08;;;28.70;99.90;;;;;;5091482;28;20036;-56
2023/06/24 11:26:58;;;;;;;4.00;3.30;;;28.70;99.90;;;;;;5091554;28;20020;-56
2023/06/24 11:29:28;;;;;;;3.50;3.20;;;28.70;99.90;;;;;;5091787;28;20032;-56
2023/06/24 11:31:53;;;;;;;3.50;3.20;;;28.80;99.90;;;;;;5091501;28;20035;-56
2023/06/24 11:34:19;;;;;;;4.35;3.08;;;29.10;99.90;;;;;;5091080;28;20028;-56
2023/06/24 11:36:45;;;;;;;3.25;2.95;;;29.20;99.90;;;;;;5091356;28;20084;-56
2023/06/24 11:39:28;;;;;;;3.63;3.10;;;29.30;99.90;;;;;;5091749;28;20073;-55
2023/06/24 11:41:57;;;;;;;3.60;3.10;;;29.30;99.90;;;;;;5091330;28;20020;-56
2023/06/24 11:44:25;;;;;;;3.90;3.30;;;29.30;99.90;;;;;;5091291;28;20059;-56
2023/06/24 11:46:52;;;;;;;5.03;2.92;;;29.40;99.90;;;;;;5091198;28;20036;-56
2023/06/24 11:49:18;;;;;;;3.42;2.92;;;29.50;99.90;;;;;;5090945;28;20111;-56
2023/06/24 11:51:48;;;;;;;3.28;3.00;;;29.50;99.90;;;;;;5091637;28;20039;-56
2023/06/24 11:54:16;;;;;;;3.50;3.20;;;29.70;99.90;;;;;;5091343;28;20042;-56
2023/06/24 11:56:43;;;;;;;4.18;3.20;;;29.80;99.90;;;;;;5091229;28;20043;-56
2023/06/24 11:59:22;;;;;;;3.65;3.35;;;29.70;99.90;;;;;;5091157;28;20059;-56
2023/06/24 12:01:59;;;;;;;3.10;2.80;;;29.40;99.90;;;;;;5091072;28;20036;-56
2023/06/24 12:04:32;;;;;;;3.85;3.30;;;29.40;99.90;;;;;;5091197;28;20394;-56
2023/06/24 12:06:58;;;;;;;3.45;3.10;;;29.50;99.90;;;;;;5091123;28;20058;-57
2023/06/24 12:09:24;;;;;;;4.40;3.13;;;29.60;99.90;;;;;;5091404;28;20505;-56
2023/06/24 12:11:51;;;;;;;4.05;3.40;;;29.60;99.90;;;;;;5091264;28;20028;-57
2023/06/24 12:14:17;;;;;;;3.60;3.30;;;29.40;99.90;;;;;;5090865;28;20028;-57
2023/06/24 12:16:42;;;;;;;3.58;3.28;;;29.30;99.90;;;;;;5090766;28;20043;-55
2023/06/24 12:19:08;;;;;;;4.47;3.38;;;29.30;99.90;;;;;;5091016;28;20024;-56
2023/06/24 12:21:35;;;;;;;3.50;3.20;;;29.50;99.90;;;;;;5090898;28;20144;-56
2023/06/24 12:24:01;;;;;;;4.07;3.30;;;29.70;99.90;;;;;;5091309;28;20016;-56
2023/06/24 12:26:27;;;;;;;3.47;3.17;;;29.70;99.90;;;;;;5090913;28;20055;-56
2023/06/24 12:28:56;;;;;;;3.38;3.08;;;29.80;99.90;;;;;;5090904;28;20128;-56
2023/06/24 12:31:23;;;;;;;5.82;3.13;;;30.00;99.90;;;;;;5090637;28;20032;-56
2023/06/24 12:33:48;;;;;;;5.28;3.20;;;30.10;99.90;;;;;;5090842;28;20050;-56
2023/06/24 12:36:14;;;;;;;4.07;3.55;;;30.10;99.90;;;;;;5092227;28;20136;-56
2023/06/24 12:38:40;;;;;;;3.80;3.50;;;30.00;99.90;;;;;;5094680;28;20028;-56
2023/06/24 12:41:06;;;;;;;3.60;3.17;;;30.00;99.90;;;;;;5095127;28;20506;-55
2023/06/24 12:43:32;;;;;;;3.90;3.28;;;30.40;99.90;;;;;;5094518;28;20089;-56
2023/06/24 12:45:58;;;;;;;3.97;3.63;;;30.50;99.90;;;;;;5094229;28;20038;-56
2023/06/24 12:48:24;;;;;;;6.43;3.20;;;30.70;99.90;;;;;;5094605;28;20020;-56
2023/06/24 12:50:52;;;;;;;3.70;3.35;;;30.80;99.90;;;;;;5094893;28;20028;-56